地図

経路データ

SID SEASON NUMBER BASIN SUBBASIN NAME ISO_TIME NATURE LAT LON WMO_WIND WMO_PRES WMO_AGENCY TRACK_TYPE DIST2LAND LANDFALL IFLAG USA_AGENCY USA_ATCF_ID USA_LAT USA_LON USA_RECORD USA_STATUS USA_WIND USA_PRES USA_SSHS USA_R34_NE USA_R34_SE USA_R34_SW USA_R34_NW USA_R50_NE USA_R50_SE USA_R50_SW USA_R50_NW USA_R64_NE USA_R64_SE USA_R64_SW USA_R64_NW USA_POCI USA_ROCI USA_RMW USA_EYE TOKYO_LAT TOKYO_LON TOKYO_GRADE TOKYO_WIND TOKYO_PRES TOKYO_R50_DIR TOKYO_R50_LONG TOKYO_R50_SHORT TOKYO_R30_DIR TOKYO_R30_LONG TOKYO_R30_SHORT TOKYO_LAND CMA_LAT CMA_LON CMA_CAT CMA_WIND CMA_PRES HKO_LAT HKO_LON HKO_CAT HKO_WIND HKO_PRES NEWDELHI_LAT NEWDELHI_LON NEWDELHI_GRADE NEWDELHI_WIND NEWDELHI_PRES NEWDELHI_CI NEWDELHI_DP NEWDELHI_POCI REUNION_LAT REUNION_LON REUNION_TYPE REUNION_WIND REUNION_PRES REUNION_TNUM REUNION_CI REUNION_RMW REUNION_R34_NE REUNION_R34_SE REUNION_R34_SW REUNION_R34_NW REUNION_R50_NE REUNION_R50_SE REUNION_R50_SW REUNION_R50_NW REUNION_R64_NE REUNION_R64_SE REUNION_R64_SW REUNION_R64_NW BOM_LAT BOM_LON BOM_TYPE BOM_WIND BOM_PRES BOM_TNUM BOM_CI BOM_RMW BOM_R34_NE BOM_R34_SE BOM_R34_SW BOM_R34_NW BOM_R50_NE BOM_R50_SE BOM_R50_SW BOM_R50_NW BOM_R64_NE BOM_R64_SE BOM_R64_SW BOM_R64_NW BOM_ROCI BOM_POCI BOM_EYE BOM_POS_METHOD BOM_PRES_METHOD NADI_LAT NADI_LON NADI_CAT NADI_WIND NADI_PRES WELLINGTON_LAT WELLINGTON_LON WELLINGTON_WIND WELLINGTON_PRES DS824_LAT DS824_LON DS824_STAGE DS824_WIND DS824_PRES TD9636_LAT TD9636_LON TD9636_STAGE TD9636_WIND TD9636_PRES TD9635_LAT TD9635_LON TD9635_WIND TD9635_PRES TD9635_ROCI NEUMANN_LAT NEUMANN_LON NEUMANN_CLASS NEUMANN_WIND NEUMANN_PRES MLC_LAT MLC_LON MLC_CLASS MLC_WIND MLC_PRES USA_GUST BOM_GUST BOM_GUST_PER REUNION_GUST REUNION_GUST_PER USA_SEAHGT USA_SEARAD_NE USA_SEARAD_SE USA_SEARAD_SW USA_SEARAD_NW STORM_SPEED STORM_DIR
1942183N21090 1942 23 NI BB NOT_NAMED 1942-07-02 00:00:00 TS 21.0000 89.5000 main 78 44 _________O____ -1 21.0000 89.5000 TC 45 9 292
1942183N21090 1942 23 NI BB NOT_NAMED 1942-07-02 03:00:00 TS 21.1721 89.0337 main 44 22 _________PO___ -1 21.2581 88.8005 TC 41 21.0000 89.5000 3 11 291
1942183N21090 1942 23 NI BB NOT_NAMED 1942-07-02 06:00:00 TS 21.3962 88.3874 main 22 11 _________OP___ -1 21.5000 88.1000 TC 37 21.2404 88.8186 3 13 290
1942183N21090 1942 23 NI BB NOT_NAMED 1942-07-02 09:00:00 TS 21.6114 87.7122 main 11 0 _________PP___ -1 21.7147 87.3998 TC 33 21.4737 88.1288 3 13 288
1942183N21090 1942 23 NI BB NOT_NAMED 1942-07-02 12:00:00 TS 21.7975 87.0623 main 0 0 _________OP___ -1 21.9000 86.7000 TC 30 21.6951 87.4247 3 13 286
1942183N21090 1942 23 NI BB NOT_NAMED 1942-07-02 15:00:00 TS 21.9786 86.3461 main 0 0 _________PO___ -1 22.0573 85.9923 TC 30 21.9000 86.7000 1 14 285
1942183N21090 1942 23 NI BB NOT_NAMED 1942-07-02 18:00:00 TS 22.1421 85.6284 main 0 0 _________OP___ -1 22.2000 85.3000 TC 30 22.0842 85.9568 1 14 284
1942183N21090 1942 23 NI BB NOT_NAMED 1942-07-02 21:00:00 TS 22.3018 84.9101 main 0 0 _________PP___ -1 22.3577 84.5901 TC 30 22.2459 85.2301 1 13 284
1942183N21090 1942 23 NI BB NOT_NAMED 1942-07-03 00:00:00 TS 22.4422 84.2816 main 0 0 _________OP___ -1 22.5000 84.0000 TC 30 22.3845 84.5632 1 10 284
1942183N21090 1942 23 NI BB NOT_NAMED 1942-07-03 03:00:00 TS 22.5573 83.8237 main 0 0 _________PO___ -1 22.6145 83.6473 TC 30 22.5000 84.0000 1 8 286
1942183N21090 1942 23 NI BB NOT_NAMED 1942-07-03 06:00:00 TS 22.6474 83.4998 main 0 0 _________OP___ -1 22.7000 83.4000 TC 30 22.5947 83.5995 1 6 285
1942183N21090 1942 23 NI BB NOT_NAMED 1942-07-03 09:00:00 TS 22.7138 83.2045 main 0 0 _________PP___ -1 22.7574 83.1074 TC 30 22.6703 83.3015 1 5 283
1942183N21090 1942 23 NI BB NOT_NAMED 1942-07-03 12:00:00 TS 22.7679 82.9264 main 0 0 _________OP___ -1 22.8000 82.8000 TC 30 22.7358 83.0528 1 5 281
1942183N21090 1942 23 NI BB NOT_NAMED 1942-07-03 15:00:00 TS 22.8212 82.6287 main 0 0 _________PO___ -1 22.8425 82.4574 TC 30 22.8000 82.8000 1 6 281
1942183N21090 1942 23 NI BB NOT_NAMED 1942-07-03 18:00:00 TS 22.8835 82.2740 main 0 0 _________OP___ -1 22.9000 82.1000 TC 30 22.8670 82.4480 1 7 282
1942183N21090 1942 23 NI BB NOT_NAMED 1942-07-03 21:00:00 TS 22.9639 81.9099 main 0 0 _________PP___ -1 22.9925 81.7350 TC 30 22.9352 82.0848 1 7 285
1942183N21090 1942 23 NI BB NOT_NAMED 1942-07-04 00:00:00 TS 23.0554 81.5646 main 0 0 _________OP___ -1 23.1000 81.4000 TC 30 23.0108 81.7292 1 6 287
1942183N21090 1942 23 NI BB NOT_NAMED 1942-07-04 03:00:00 TS 23.1462 81.2674 main 0 0 _________PO___ -1 23.1924 81.1349 TC 30 23.1000 81.4000 1 6 292
1942183N21090 1942 23 NI BB NOT_NAMED 1942-07-04 06:00:00 TS 23.2592 81.0046 main 0 0 _________OP___ -1 23.3000 80.9000 TC 30 23.2185 81.1092 1 5 298
1942183N21090 1942 23 NI BB NOT_NAMED 1942-07-04 09:00:00 TS 23.3999 80.7414 main 0 0 _________PP___ -1 23.4500 80.6351 TC 30 23.3497 80.8476 1 5 302
1942183N21090 1942 23 NI BB NOT_NAMED 1942-07-04 12:00:00 TS 23.5405 80.5061 main 0 0 _________OP___ -1 23.6000 80.4000 TC 30 23.4811 80.6123 1 5 304
1942183N21090 1942 23 NI BB NOT_NAMED 1942-07-04 15:00:00 TS 23.6575 80.3212 main 0 0 _________PO___ -1 23.7149 80.2424 TC 30 23.6000 80.4000 1 4 302
1942183N21090 1942 23 NI BB NOT_NAMED 1942-07-04 18:00:00 TS 23.7411 80.1614 main 0 0 _________OP___ -1 23.8000 80.1000 TC 30 23.6970 80.2074 1 3 296
1942183N21090 1942 23 NI BB NOT_NAMED 1942-07-04 21:00:00 TS 23.8081 79.9840 main 0 0 _________PP___ -1 23.8576 79.9150 TC 30 23.7752 80.0299 1 3 290
1942183N21090 1942 23 NI BB NOT_NAMED 1942-07-05 00:00:00 TS 23.8605 79.8083 main 0 0 _________OP___ -1 23.9000 79.7000 TC 30 23.8408 79.8625 1 3 290
1942183N21090 1942 23 NI BB NOT_NAMED 1942-07-05 03:00:00 NR 23.9000 79.7000 main 0 __________O___ -1 TC 23.9000 79.7000 1 2 292

IBTrACS Databaseについて

本データベースは、米国NOAAが公開する1842年以降の世界の熱帯低気圧のベストトラックデータアーカイブInternational Best Track Archive for Climate Stewardship (IBTrACS)を、ウェブで閲覧しやすい形式に変換したものです。

最終更新日:2021-11-26